Time;durP1;ratioP1;P1;durP2;ratioP2;P2;SDS_P1;SDS_P2;PMS_P1;PMS_P2;Temp;Humidity;BMP_temperature;BMP_pressure;BME280_temperature;BME280_humidity;BME280_pressure;Samples;Min_cycle;Max_cycle;Signal;HPM_P1;HPM_P2
2021/03/17 00:00:18;;;;;;;9.45;5.40;;;;;;;7.77;65.66;100953.75;5004684;28;20058;-79
2021/03/17 00:02:45;;;;;;;8.73;6.25;;;;;;;7.79;66.19;100951.53;5005466;28;20058;-78
2021/03/17 00:05:14;;;;;;;13.00;6.13;;;;;;;7.83;65.92;100958.16;5005726;28;20416;-78
2021/03/17 00:07:41;;;;;;;15.93;6.38;;;;;;;7.84;66.21;100948.75;5005020;28;20054;-78
2021/03/17 00:10:09;;;;;;;9.90;6.30;;;;;;;7.86;66.59;100954.84;5005082;28;20058;-78
2021/03/17 00:12:36;;;;;;;10.77;5.75;;;;;;;7.88;65.91;100952.59;5003767;28;20069;-78
2021/03/17 00:15:05;;;;;;;9.77;5.13;;;;;;;7.92;65.64;100962.00;5003535;28;20058;-78
2021/03/17 00:17:32;;;;;;;12.70;5.63;;;;;;;7.93;65.59;100958.13;5003852;28;20077;-78
2021/03/17 00:19:59;;;;;;;8.38;5.93;;;;;;;7.95;65.22;100957.84;5003374;28;20517;-78
2021/03/17 00:22:28;;;;;;;11.35;5.47;;;;;;;7.97;65.54;100958.38;5003636;28;20061;-78
2021/03/17 00:24:55;;;;;;;7.93;5.18;;;;;;;7.97;65.41;100961.97;5003638;28;20057;-79
2021/03/17 00:27:21;;;;;;;16.35;6.25;;;;;;;7.98;65.25;100962.81;5003383;28;20065;-79
2021/03/17 00:29:48;;;;;;;10.50;5.78;;;;;;;7.96;65.45;100973.34;5003849;28;20069;-78
2021/03/17 00:32:16;;;;;;;9.82;5.20;;;;;;;7.93;65.89;100966.44;5003083;28;20408;-79
2021/03/17 00:34:43;;;;;;;10.65;5.20;;;;;;;7.95;65.65;100969.75;5002889;28;20058;-79
2021/03/17 00:37:10;;;;;;;9.13;5.53;;;;;;;7.90;65.91;100978.94;5003120;28;20070;-78
2021/03/17 00:39:37;;;;;;;11.85;5.53;;;;;;;7.92;65.19;100973.13;5002775;28;20050;-78
2021/03/17 00:42:59;;;;;;;10.35;5.03;;;;;;;7.94;65.30;100979.22;5002326;28;20416;-78
2021/03/17 00:45:26;;;;;;;9.52;4.53;;;;;;;7.90;64.46;100981.72;5003806;28;20062;-78
2021/03/17 00:47:54;;;;;;;11.40;4.57;;;;;;;7.84;64.53;100982.03;5003204;28;20061;-78
2021/03/17 00:50:22;;;;;;;10.38;5.07;;;;;;;7.79;64.52;100985.66;5002231;28;20066;-78
2021/03/17 00:52:49;;;;;;;7.78;4.97;;;;;;;7.78;64.75;100991.47;5001664;28;20050;-78
2021/03/17 00:55:16;;;;;;;10.45;5.35;;;;;;;7.77;64.99;100990.66;5000747;28;20069;-78
2021/03/17 00:57:42;;;;;;;11.55;4.90;;;;;;;7.77;65.34;100990.66;5000432;28;20054;-78
2021/03/17 01:00:12;;;;;;;11.73;4.63;;;;;;;7.75;64.30;100992.88;5001411;28;20054;-78
2021/03/17 01:02:41;;;;;;;6.95;3.95;;;;;;;7.77;64.95;100992.56;4999438;28;20054;-78
2021/03/17 01:05:34;;;;;;;12.20;5.45;;;;;;;7.72;65.39;100991.47;4999415;28;20488;-78
2021/03/17 01:08:01;;;;;;;9.45;4.45;;;;;;;7.70;64.08;100985.38;4999155;28;20062;-78
2021/03/17 01:10:32;;;;;;;8.75;4.60;;;;;;;7.68;64.53;100982.06;4998143;28;20073;-78
2021/03/17 01:13:02;;;;;;;10.40;4.93;;;;;;;7.68;65.36;100984.00;4997324;28;20066;-78
2021/03/17 01:15:29;;;;;;;8.65;5.30;;;;;;;7.63;64.46;100979.31;4996710;28;20054;-78
2021/03/17 01:17:56;;;;;;;11.52;4.40;;;;;;;7.64;64.48;100980.13;4997002;28;20054;-78
2021/03/17 01:20:25;;;;;;;10.00;4.07;;;;;;;7.61;65.26;100970.44;4996942;28;20513;-78
2021/03/17 01:22:53;;;;;;;8.27;4.53;;;;;;;7.54;64.90;100981.03;5002140;28;20065;-78
2021/03/17 01:25:23;;;;;;;7.88;4.50;;;;;;;7.51;64.78;100981.56;5001843;28;20058;-78
2021/03/17 01:27:50;;;;;;;8.25;4.28;;;;;;;7.54;65.58;100972.69;5001825;28;20062;-78
2021/03/17 01:30:18;;;;;;;7.53;4.43;;;;;;;7.55;65.16;100979.88;5002173;28;20050;-78
2021/03/17 01:32:45;;;;;;;9.85;4.72;;;;;;;7.56;65.17;100986.25;5001907;28;20058;-78
2021/03/17 01:35:14;;;;;;;9.90;4.43;;;;;;;7.57;65.21;100990.72;5002407;28;20057;-78
2021/03/17 01:37:45;;;;;;;7.95;3.95;;;;;;;7.58;64.94;100993.19;5003127;28;20058;-78
2021/03/17 01:40:14;;;;;;;9.45;4.10;;;;;;;7.61;64.08;100992.63;5001912;28;20063;-78
2021/03/17 01:42:41;;;;;;;9.57;4.63;;;;;;;7.62;64.68;101001.75;5002347;28;20058;-79
2021/03/17 01:45:12;;;;;;;8.25;4.32;;;;;;;7.63;64.61;101004.25;5003652;28;20054;-79
2021/03/17 01:47:39;;;;;;;11.40;5.05;;;;;;;7.60;64.61;101002.06;5003409;28;20062;-78
2021/03/17 01:50:09;;;;;;;12.32;5.60;;;;;;;7.61;64.30;101003.72;5002817;28;20046;-78
2021/03/17 01:52:36;;;;;;;16.05;7.00;;;;;;;7.58;64.77;101000.66;5002406;28;20050;-78
2021/03/17 01:55:05;;;;;;;13.68;6.22;;;;;;;7.55;64.93;100995.69;5002353;28;20069;-78
2021/03/17 01:57:34;;;;;;;13.15;6.05;;;;;;;7.55;65.15;100993.75;5001769;28;20061;-78
2021/03/17 02:00:01;;;;;;;12.75;6.20;;;;;;;7.48;64.86;100996.81;5002143;28;20073;-78
2021/03/17 02:02:30;;;;;;;10.15;5.95;;;;;;;7.46;65.52;100996.28;5003104;28;20065;-78
2021/03/17 02:04:57;;;;;;;11.27;5.88;;;;;;;7.46;65.07;100998.22;5003099;28;20070;-78
2021/03/17 02:07:24;;;;;;;12.13;5.88;;;;;;;7.46;66.12;100999.03;5003489;28;20066;-78
2021/03/17 02:09:51;;;;;;;11.32;5.50;;;;;;;7.47;66.09;100991.56;5002431;28;20058;-78
2021/03/17 02:12:31;;;;;;;11.50;5.22;;;;;;;7.52;65.37;100991.56;5002045;28;20062;-78
2021/03/17 02:15:10;;;;;;;9.90;5.55;;;;;;;7.55;65.72;100990.97;5003345;28;20065;-78
2021/03/17 02:17:41;;;;;;;12.13;5.55;;;;;;;7.56;65.67;100992.66;5006305;28;20054;-78
2021/03/17 02:20:39;;;;;;;11.60;6.15;;;;;;;7.59;66.08;100988.47;5005552;28;20069;-78
2021/03/17 02:23:18;;;;;;;10.02;5.78;;;;;;;7.59;65.70;100989.31;5006330;28;20054;-78
2021/03/17 02:26:15;;;;;;;12.57;6.27;;;;;;;7.59;65.86;100986.53;4986864;28;20091;-78
2021/03/17 02:29:08;;;;;;;12.13;5.88;;;;;;;7.58;66.04;100993.19;4958904;28;20398;-78
2021/03/17 02:31:50;;;;;;;12.43;6.40;;;;;;;7.56;65.94;100995.44;4954221;28;20063;-78
2021/03/17 02:34:21;;;;;;;24.15;17.85;;;;;;;7.56;66.33;100986.25;4992714;28;20055;-78
2021/03/17 02:36:52;;;;;;;11.27;7.32;;;;;;;7.57;65.83;100983.22;4986692;28;20066;-78
2021/03/17 02:39:23;;;;;;;10.32;5.85;;;;;;;7.53;65.66;100974.63;5006474;28;20062;-78
2021/03/17 02:41:57;;;;;;;12.25;5.97;;;;;;;7.52;65.97;100984.06;5006074;28;20065;-78
2021/03/17 02:44:26;;;;;;;10.57;6.40;;;;;;;7.49;66.60;100983.78;5006415;28;20058;-78
2021/03/17 02:46:55;;;;;;;9.07;6.15;;;;;;;7.46;66.15;100990.72;5005307;28;20066;-78
2021/03/17 02:49:26;;;;;;;11.00;6.82;;;;;;;7.44;66.87;100981.88;5006008;28;20480;-78
2021/03/17 02:51:57;;;;;;;13.63;7.50;;;;;;;7.45;66.38;100988.22;5004993;28;20396;-78
2021/03/17 02:54:26;;;;;;;11.85;7.30;;;;;;;7.44;66.57;100983.81;5005624;28;20058;-78
2021/03/17 02:56:57;;;;;;;11.20;6.53;;;;;;;7.44;66.01;100989.34;5004979;28;20058;-78
2021/03/17 02:59:26;;;;;;;10.48;6.57;;;;;;;7.44;66.00;100986.59;5005251;28;20054;-78
2021/03/17 03:01:57;;;;;;;11.82;6.20;;;;;;;7.42;66.49;100984.09;5004517;28;20057;-78
2021/03/17 03:04:26;;;;;;;10.63;6.13;;;;;;;7.40;66.30;100989.06;5005189;28;20058;-78
2021/03/17 03:06:55;;;;;;;10.80;6.78;;;;;;;7.43;66.48;100984.91;5004653;28;20404;-78
2021/03/17 03:09:23;;;;;;;14.82;6.75;;;;;;;7.41;66.77;100987.13;5004488;28;20070;-78
2021/03/17 03:11:52;;;;;;;9.75;6.20;;;;;;;7.38;67.06;100982.97;5004685;28;20396;-78
2021/03/17 03:14:21;;;;;;;12.68;6.22;;;;;;;7.38;66.83;100988.53;5005297;28;20054;-78
2021/03/17 03:16:50;;;;;;;10.05;6.20;;;;;;;7.37;67.03;100981.34;5004890;28;20368;-78
2021/03/17 03:19:23;;;;;;;12.07;7.05;;;;;;;7.39;67.45;100994.88;5004997;28;20058;-78
2021/03/17 03:21:52;;;;;;;12.60;6.95;;;;;;;7.40;67.95;100985.47;5004008;28;20061;-78
2021/03/17 03:24:19;;;;;;;9.10;6.65;;;;;;;7.40;67.26;100991.84;5004319;28;20058;-78
2021/03/17 03:26:49;;;;;;;11.05;7.30;;;;;;;7.42;67.39;100977.72;5003652;28;20377;-78
2021/03/17 03:29:17;;;;;;;9.13;6.32;;;;;;;7.40;67.58;100979.94;5005172;28;20046;-78
2021/03/17 03:31:46;;;;;;;8.27;5.65;;;;;;;7.37;67.28;100981.34;5004558;28;20058;-78
2021/03/17 03:34:17;;;;;;;8.00;5.90;;;;;;;7.32;68.00;100987.69;5004406;28;20064;-78
2021/03/17 03:36:44;;;;;;;7.78;5.57;;;;;;;7.27;67.69;100987.72;5004584;28;20061;-78
2021/03/17 03:39:12;;;;;;;7.82;5.70;;;;;;;7.22;67.69;100984.94;5004098;28;20058;-78
2021/03/17 03:41:40;;;;;;;7.50;4.80;;;;;;;7.21;67.98;100991.59;5003765;28;20050;-78
2021/03/17 03:44:07;;;;;;;7.80;5.10;;;;;;;7.18;67.85;100989.41;5004985;28;20054;-78
2021/03/17 03:46:34;;;;;;;7.75;5.45;;;;;;;7.12;67.63;100990.53;5003793;28;20077;-78
2021/03/17 03:49:02;;;;;;;9.20;5.47;;;;;;;7.06;68.03;100981.38;5003869;28;20500;-78
2021/03/17 03:51:32;;;;;;;6.68;5.25;;;;;;;7.00;68.17;100999.09;5003376;28;20061;-78
2021/03/17 03:54:20;;;;;;;5.93;4.90;;;;;;;6.99;68.32;100996.59;5003237;28;20050;-78
2021/03/17 03:56:53;;;;;;;8.05;5.70;;;;;;;6.98;68.26;100994.94;5003414;28;20057;-78
2021/03/17 03:59:23;;;;;;;7.93;5.28;;;;;;;6.99;68.43;100996.59;5002691;28;20054;-78
2021/03/17 04:01:54;;;;;;;5.80;4.90;;;;;;;6.97;68.07;100998.81;5002838;28;20058;-78
2021/03/17 04:04:27;;;;;;;8.15;5.68;;;;;;;6.93;69.24;100994.94;5002493;28;20061;-78
2021/03/17 04:06:57;;;;;;;7.63;5.18;;;;;;;6.91;69.46;100990.53;5003635;28;20058;-78
2021/03/17 04:09:32;;;;;;;7.55;5.07;;;;;;;6.84;69.27;100991.91;5003210;28;20061;-78
2021/03/17 04:12:02;;;;;;;6.75;5.35;;;;;;;6.81;69.13;101001.59;5002787;28;20469;-78
2021/03/17 04:14:34;;;;;;;6.13;4.78;;;;;;;6.80;69.89;101002.69;5002452;28;20531;-78
2021/03/17 04:17:05;;;;;;;8.02;4.88;;;;;;;6.81;69.60;100992.47;5001739;28;20499;-78
2021/03/17 04:19:36;;;;;;;5.30;4.50;;;;;;;6.79;69.28;100991.91;4982711;28;20059;-78
2021/03/17 04:22:05;;;;;;;5.38;3.88;;;;;;;6.75;68.95;100996.34;4983326;28;20058;-78
2021/03/17 04:24:37;;;;;;;5.25;4.25;;;;;;;6.71;69.40;100996.88;4993269;28;20061;-78
2021/03/17 04:27:06;;;;;;;5.45;3.97;;;;;;;6.70;68.89;100989.69;5002579;28;20058;-78
2021/03/17 04:29:35;;;;;;;5.40;4.07;;;;;;;6.68;69.27;100993.84;5003325;28;20062;-78
2021/03/17 04:32:02;;;;;;;6.25;4.18;;;;;;;6.66;69.50;100999.66;5003043;28;20485;-78
2021/03/17 04:34:30;;;;;;;5.82;4.15;;;;;;;6.65;70.02;100999.91;5002671;28;20416;-78
2021/03/17 04:36:58;;;;;;;4.25;3.50;;;;;;;6.65;69.90;101002.69;5002008;28;20069;-78
2021/03/17 04:39:26;;;;;;;4.63;3.60;;;;;;;6.62;69.42;101003.25;5002053;28;20054;-78
2021/03/17 04:41:56;;;;;;;4.75;3.92;;;;;;;6.63;69.93;101008.47;5000864;28;20061;-78
2021/03/17 04:44:23;;;;;;;4.93;3.88;;;;;;;6.62;70.00;101011.56;5002160;28;20060;-78
2021/03/17 04:46:50;;;;;;;5.00;4.05;;;;;;;6.61;70.05;101007.09;5003853;28;20061;-78
2021/03/17 04:49:20;;;;;;;5.30;4.20;;;;;;;6.59;70.20;101007.38;5003215;28;20058;-78
2021/03/17 04:51:48;;;;;;;6.35;4.20;;;;;;;6.60;70.22;101005.47;5003435;28;20062;-78
2021/03/17 04:54:15;;;;;;;6.43;4.65;;;;;;;6.61;70.37;101013.47;5003374;28;20404;-78
2021/03/17 04:56:44;;;;;;;8.57;4.50;;;;;;;6.61;70.35;101016.22;5003729;28;20069;-78
2021/03/17 04:59:17;;;;;;;5.65;4.57;;;;;;;6.63;70.36;101015.97;5003388;28;20058;-78
2021/03/17 05:01:45;;;;;;;6.13;5.13;;;;;;;6.65;69.85;101019.28;5003069;28;20065;-78
2021/03/17 05:04:13;;;;;;;6.10;5.00;;;;;;;6.68;69.87;101024.28;5003088;28;20066;-78
2021/03/17 05:06:41;;;;;;;7.78;5.40;;;;;;;6.68;69.68;101021.53;5003420;28;20054;-78
2021/03/17 05:09:10;;;;;;;6.60;5.40;;;;;;;6.66;69.43;101019.03;5003528;28;20061;-78
2021/03/17 05:11:38;;;;;;;7.38;5.60;;;;;;;6.65;70.16;101020.13;5003601;28;20472;-79
2021/03/17 05:14:07;;;;;;;7.07;5.22;;;;;;;6.70;69.64;101017.38;5002500;28;20484;-78
2021/03/17 05:16:37;;;;;;;7.13;6.07;;;;;;;6.66;70.13;101027.31;5002758;28;20066;-78
2021/03/17 05:19:05;;;;;;;;;;;;;;;6.71;69.76;101023.72;5004258;28;20074;-78
2021/03/17 05:21:34;;;;;;;6.65;5.53;;;;;;;6.71;69.34;101026.50;5002683;28;19933;-78
2021/03/17 05:24:02;;;;;;;6.93;5.93;;;;;;;6.70;69.33;101022.91;5003237;28;20488;-78
2021/03/17 05:26:30;;;;;;;7.78;6.03;;;;;;;6.74;69.39;101028.72;5003049;28;20054;-78
2021/03/17 05:28:59;;;;;;;8.07;5.85;;;;;;;6.76;70.15;101032.06;5002565;28;20074;-78
2021/03/17 05:31:27;;;;;;;7.35;5.82;;;;;;;6.77;69.65;101022.63;5002122;28;20054;-78
2021/03/17 05:33:55;;;;;;;7.18;5.70;;;;;;;6.77;70.12;101027.34;5002659;28;20061;-78
2021/03/17 05:36:22;;;;;;;8.15;6.13;;;;;;;6.80;70.13;101022.06;5003283;28;20062;-78
2021/03/17 05:38:52;;;;;;;7.72;6.10;;;;;;;6.80;69.62;101022.06;5002728;28;20046;-78
2021/03/17 05:41:19;;;;;;;8.32;6.18;;;;;;;6.84;69.51;101028.72;5002173;28;20065;-78
2021/03/17 05:43:48;;;;;;;7.32;6.05;;;;;;;6.86;69.95;101022.91;5003101;28;20058;-78
2021/03/17 05:46:15;;;;;;;6.65;5.30;;;;;;;6.88;69.86;101029.00;5002081;28;20069;-78
2021/03/17 05:48:43;;;;;;;7.32;6.03;;;;;;;6.85;70.11;101022.09;5002526;28;20069;-78
2021/03/17 05:51:11;;;;;;;7.00;5.72;;;;;;;6.84;70.31;101025.94;5005462;28;20054;-78
2021/03/17 05:53:40;;;;;;;7.95;6.35;;;;;;;6.85;71.19;101027.63;5006715;28;20065;-78
2021/03/17 05:56:08;;;;;;;8.73;6.65;;;;;;;6.87;70.69;101028.19;5005381;28;20058;-78
2021/03/17 05:58:34;;;;;;;10.25;7.07;;;;;;;6.85;70.55;101037.88;5005390;28;20054;-78
2021/03/17 06:01:01;;;;;;;8.95;7.20;;;;;;;6.85;70.20;101035.94;5006112;28;20062;-78
2021/03/17 06:03:31;;;;;;;9.10;7.03;;;;;;;6.85;69.85;101035.94;5006714;28;20389;-78
2021/03/17 06:05:59;;;;;;;10.75;7.57;;;;;;;6.82;70.18;101046.72;5006040;28;20054;-78
2021/03/17 06:08:31;;;;;;;12.48;8.48;;;;;;;6.79;69.76;101048.09;5005260;28;20058;-78
2021/03/17 06:10:58;;;;;;;12.25;7.97;;;;;;;6.76;68.77;101058.88;5003849;28;20058;-78
2021/03/17 06:13:28;;;;;;;10.48;7.18;;;;;;;6.68;69.36;101057.50;5001627;28;20054;-78
2021/03/17 06:15:58;;;;;;;11.98;7.32;;;;;;;6.64;69.23;101061.94;5002005;28;20058;-78
2021/03/17 06:18:29;;;;;;;9.45;6.80;;;;;;;6.59;69.33;101064.66;5005756;28;20377;-78
2021/03/17 06:20:58;;;;;;;11.57;6.50;;;;;;;6.50;69.88;101067.97;5005062;28;20054;-78
2021/03/17 06:23:26;;;;;;;12.00;5.93;;;;;;;6.47;69.68;101068.53;5004720;28;20065;-78
2021/03/17 06:25:56;;;;;;;12.40;5.72;;;;;;;6.48;70.30;101061.06;5003444;28;20058;-78
2021/03/17 06:28:23;;;;;;;9.23;5.90;;;;;;;6.42;70.32;101071.25;5003357;28;20057;-78
2021/03/17 06:30:53;;;;;;;9.43;4.80;;;;;;;6.42;69.42;101071.25;5002274;28;20054;-78
2021/03/17 06:33:20;;;;;;;9.57;5.57;;;;;;;6.45;69.10;101076.28;5003542;28;20496;-78
2021/03/17 06:35:49;;;;;;;11.20;5.82;;;;;;;6.48;69.33;101072.94;5004357;28;20058;-78
2021/03/17 06:38:23;;;;;;;8.60;5.33;;;;;;;6.53;68.95;101076.84;5003896;28;20065;-78
2021/03/17 06:40:58;;;;;;;8.07;4.93;;;;;;;6.59;68.89;101086.81;5003523;28;20482;-78
2021/03/17 06:43:37;;;;;;;8.65;5.10;;;;;;;6.58;68.60;101085.16;4993536;28;20046;-78
2021/03/17 06:46:06;;;;;;;6.70;3.95;;;;;;;6.59;67.98;101084.03;4999392;28;20050;-78
2021/03/17 06:48:33;;;;;;;6.80;3.80;;;;;;;6.59;66.86;101086.81;5000154;28;20065;-78
2021/03/17 06:51:10;;;;;;;7.25;3.38;;;;;;;6.63;65.98;101082.41;5001409;28;20058;-78
2021/03/17 06:53:42;;;;;;;7.78;4.30;;;;;;;6.69;66.11;101092.38;4999005;28;20070;-78
2021/03/17 06:56:18;;;;;;;6.35;3.00;;;;;;;6.85;65.70;101080.25;4998766;28;20077;-78
2021/03/17 06:58:47;;;;;;;7.40;3.53;;;;;;;6.99;65.24;101074.16;4997986;28;20066;-78
2021/03/17 07:01:28;;;;;;;7.15;3.78;;;;;;;7.06;65.72;101083.03;4999537;28;20046;-78
2021/03/17 07:03:55;;;;;;;7.43;3.25;;;;;;;7.13;65.29;101080.00;5000175;28;20054;-78
2021/03/17 07:06:22;;;;;;;5.47;2.67;;;;;;;7.38;63.93;101068.06;5006241;28;20042;-79
2021/03/17 07:08:50;;;;;;;4.85;2.50;;;;;;;9.27;60.96;101075.56;5005223;28;20058;-78
2021/03/17 07:11:25;;;;;;;5.80;2.17;;;;;;;9.46;57.27;101081.22;5005999;28;20061;-78
2021/03/17 07:13:57;;;;;;;4.63;2.20;;;;;;;9.23;57.06;101079.22;5004463;28;20411;-79
2021/03/17 07:16:36;;;;;;;6.72;2.08;;;;;;;9.05;56.72;101078.81;5015848;28;20054;-79
2021/03/17 07:19:04;;;;;;;4.53;2.10;;;;;;;9.00;58.00;101084.38;5026447;28;20054;-79
2021/03/17 07:21:34;;;;;;;5.82;1.90;;;;;;;8.90;58.09;101088.06;5009353;28;20057;-79
2021/03/17 07:24:02;;;;;;;4.88;2.10;;;;;;;8.76;58.18;101078.72;5008307;28;20059;-79
2021/03/17 07:26:30;;;;;;;4.30;1.90;;;;;;;8.72;57.95;101072.91;5008239;28;20055;-79
2021/03/17 07:29:13;;;;;;;4.18;1.70;;;;;;;8.68;57.92;101082.91;5006538;28;20411;-78
2021/03/17 07:31:45;;;;;;;5.38;2.80;;;;;;;8.94;56.40;101079.97;5002150;28;20062;-78
2021/03/17 07:34:20;;;;;;;6.43;2.80;;;;;;;9.71;55.06;101082.94;4987843;28;20053;-79
2021/03/17 07:36:49;;;;;;;4.28;2.13;;;;;;;9.85;54.25;101083.09;5004437;28;20057;-78
2021/03/17 07:39:20;;;;;;;6.68;2.55;;;;;;;9.81;53.77;101078.41;5005682;28;20063;-78
2021/03/17 07:41:51;;;;;;;5.68;3.17;;;;;;;10.29;52.63;101072.81;5005130;28;20050;-79
2021/03/17 07:44:18;;;;;;;4.57;2.28;;;;;;;11.06;49.39;101072.59;5005819;28;20058;-78
2021/03/17 07:46:48;;;;;;;7.43;1.98;;;;;;;12.91;45.12;101066.22;5000707;28;20077;-77
2021/03/17 07:49:15;;;;;;;4.28;1.77;;;;;;;13.75;44.52;101071.13;4996352;28;20077;-80
2021/03/17 07:51:48;;;;;;;4.95;1.98;;;;;;;14.03;43.05;101076.53;4997094;28;20054;-80
2021/03/17 07:54:25;;;;;;;5.38;2.00;;;;;;;13.85;43.30;101081.22;5001359;28;20427;-78
2021/03/17 07:56:54;;;;;;;6.30;1.75;;;;;;;13.56;42.54;101084.50;5000120;28;20054;-78
2021/03/17 07:59:22;;;;;;;5.40;1.50;;;;;;;13.07;43.14;101075.09;5002978;28;20051;-78
2021/03/17 08:01:51;;;;;;;5.45;1.67;;;;;;;12.49;45.37;101094.25;5003547;28;20177;-78
2021/03/17 08:04:17;;;;;;;5.30;2.30;;;;;;;12.00;45.79;101092.22;5002409;28;20058;-78
2021/03/17 08:06:45;;;;;;;6.15;1.90;;;;;;;11.56;47.60;101097.97;5005236;28;20403;-78
2021/03/17 08:09:12;;;;;;;5.35;2.90;;;;;;;11.12;48.39;101101.22;5006172;28;20271;-78
2021/03/17 08:11:39;;;;;;;7.70;2.72;;;;;;;10.70;48.62;101103.78;5005060;28;20054;-78
2021/03/17 08:14:12;;;;;;;5.63;3.75;;;;;;;10.42;49.78;101097.19;5005928;28;20062;-79
2021/03/17 08:16:42;;;;;;;7.20;3.28;;;;;;;10.01;51.38;101102.38;5003257;28;20381;-78
2021/03/17 08:19:23;;;;;;;5.65;2.95;;;;;;;9.77;51.74;101100.41;5002623;28;20061;-77
2021/03/17 08:21:52;;;;;;;7.47;2.80;;;;;;;9.51;52.74;101105.38;4997721;28;20058;-78
2021/03/17 08:24:39;;;;;;;6.05;2.70;;;;;;;9.41;53.68;101108.25;4997746;28;20405;-77
2021/03/17 08:27:22;;;;;;;6.53;3.33;;;;;;;9.26;54.57;101110.06;5013858;28;20065;-78
2021/03/17 08:29:52;;;;;;;6.63;3.20;;;;;;;9.15;55.38;101105.66;4993609;28;20385;-79
2021/03/17 08:32:20;;;;;;;9.18;3.47;;;;;;;9.01;56.03;101107.44;5013792;28;20165;-79
2021/03/17 08:34:55;;;;;;;7.10;3.45;;;;;;;8.87;57.09;101104.47;5007018;28;20054;-78
2021/03/17 08:37:52;;;;;;;7.32;3.80;;;;;;;8.92;56.75;101102.50;4997401;28;20061;-78
2021/03/17 08:40:47;;;;;;;6.53;3.03;;;;;;;9.03;55.95;101106.03;5000972;28;20065;-78
2021/03/17 08:43:41;;;;;;;7.13;3.30;;;;;;;8.99;55.60;101104.09;4996184;28;20054;-78
2021/03/17 08:46:10;;;;;;;7.30;3.60;;;;;;;8.90;56.37;101095.56;4999221;28;20068;-77
2021/03/17 08:48:55;;;;;;;14.15;4.30;;;;;;;8.95;56.36;101103.88;4995839;28;20058;-78
2021/03/17 08:52:04;;;;;;;8.43;3.63;;;;;;;9.10;56.08;101102.94;4997540;28;20069;-79
2021/03/17 08:55:03;;;;;;;6.65;3.92;;;;;;;9.23;55.11;101112.56;4986934;28;20054;-78
2021/03/17 08:57:54;;;;;;;7.88;4.55;;;;;;;9.24;55.20;101098.38;4959897;28;20059;-77
2021/03/17 09:00:47;;;;;;;6.40;4.15;;;;;;;9.29;55.98;101109.44;4994470;28;20400;-78
2021/03/17 09:03:40;;;;;;;7.43;3.90;;;;;;;9.31;55.04;101107.22;4978183;28;20046;-78
2021/03/17 09:06:12;;;;;;;5.38;3.90;;;;;;;9.42;53.93;101107.94;5002515;28;20065;-78
2021/03/17 09:09:01;;;;;;;8.25;4.50;;;;;;;9.37;54.48;101115.53;5006957;28;20065;-78
2021/03/17 09:11:54;;;;;;;11.82;4.97;;;;;;;9.31;55.47;101118.34;4999375;28;20062;-78
2021/03/17 09:14:38;;;;;;;8.95;5.03;;;;;;;9.30;55.37;101116.69;4992632;28;20054;-78
2021/03/17 09:17:30;;;;;;;7.25;4.22;;;;;;;9.57;54.16;101120.06;4994328;28;20058;-78
2021/03/17 09:20:22;;;;;;;6.13;3.97;;;;;;;9.70;53.24;101109.09;4997712;28;20061;-77
2021/03/17 09:23:00;;;;;;;8.32;4.57;;;;;;;9.89;53.09;101111.13;4993447;28;20499;-77
2021/03/17 09:25:29;;;;;;;8.07;4.65;;;;;;;9.96;53.24;101119.97;4995702;28;20058;-77
2021/03/17 09:28:03;;;;;;;11.10;5.20;;;;;;;10.02;52.77;101109.63;4998712;28;20061;-77
2021/03/17 09:30:34;;;;;;;10.38;6.15;;;;;;;10.15;52.52;101115.31;4994946;28;20054;-77
2021/03/17 09:33:05;;;;;;;7.45;4.53;;;;;;;10.42;51.73;101111.13;4987652;28;20051;-77
2021/03/17 09:35:33;;;;;;;6.45;4.55;;;;;;;10.73;51.18;101110.69;5001562;28;20419;-78
2021/03/17 09:38:04;;;;;;;9.45;5.60;;;;;;;10.95;49.51;101108.16;5004727;28;20063;-77
2021/03/17 09:41:06;;;;;;;7.40;5.30;;;;;;;10.93;49.03;101104.84;4997664;28;20046;-78
2021/03/17 09:43:36;;;;;;;8.70;4.40;;;;;;;10.69;48.92;101106.88;4985275;28;20065;-78
2021/03/17 09:46:31;;;;;;;5.95;3.83;;;;;;;10.41;49.45;101111.41;4989766;28;20071;-78
2021/03/17 09:49:01;;;;;;;6.63;4.57;;;;;;;10.10;51.63;101118.16;4999424;28;20061;-77
2021/03/17 09:51:30;;;;;;;6.45;3.30;;;;;;;9.95;50.80;101112.72;5004835;28;20419;-77
2021/03/17 09:53:59;;;;;;;7.18;3.22;;;;;;;9.73;50.77;101119.63;5009591;28;20066;-77
2021/03/17 09:56:45;;;;;;;7.00;3.40;;;;;;;9.71;51.03;101112.72;5000285;28;20481;-77
2021/03/17 09:59:17;;;;;;;5.53;3.58;;;;;;;9.50;51.04;101118.47;4999466;28;20134;-77
2021/03/17 10:01:51;;;;;;;8.32;3.30;;;;;;;9.64;51.34;101109.44;4995194;28;20065;-77
2021/03/17 10:04:20;;;;;;;6.72;2.55;;;;;;;9.71;50.52;101113.53;4996739;28;20169;-77
2021/03/17 10:06:47;;;;;;;6.65;2.47;;;;;;;9.74;51.18;101104.63;4996886;28;20062;-77
2021/03/17 10:09:14;;;;;;;6.25;2.75;;;;;;;9.77;49.82;101114.31;4997166;28;20058;-77
2021/03/17 10:11:44;;;;;;;5.70;2.00;;;;;;;9.98;49.94;101106.59;4994892;28;20054;-77
2021/03/17 10:14:13;;;;;;;6.78;2.05;;;;;;;10.20;49.75;101105.22;4996683;28;20412;-78
2021/03/17 10:16:40;;;;;;;6.70;2.00;;;;;;;10.14;49.50;101105.31;4997602;28;20066;-77
2021/03/17 10:19:13;;;;;;;6.30;2.17;;;;;;;10.09;49.13;101104.53;5000585;28;20074;-78
2021/03/17 10:21:41;;;;;;;5.88;1.80;;;;;;;9.90;48.05;101108.06;4995896;28;20055;-79
2021/03/17 10:24:10;;;;;;;5.88;1.60;;;;;;;9.83;47.58;101102.03;5000629;28;20377;-78
2021/03/17 10:26:38;;;;;;;6.75;2.03;;;;;;;9.57;48.75;101106.16;4991916;28;20062;-78
2021/03/17 10:29:05;;;;;;;4.00;1.33;;;;;;;9.51;48.03;101110.94;4999411;28;20428;-78
2021/03/17 10:31:36;;;;;;;4.93;1.70;;;;;;;9.47;45.91;101116.28;5000778;28;20050;-78
2021/03/17 10:34:14;;;;;;;3.58;1.40;;;;;;;9.71;46.23;101115.50;5000641;28;20054;-78
2021/03/17 10:36:42;;;;;;;3.38;1.50;;;;;;;10.55;43.28;101102.03;4994521;28;21646;-77
2021/03/17 10:39:09;;;;;;;3.58;1.35;;;;;;;10.77;43.99;101107.03;4999561;28;20062;-77
2021/03/17 10:41:41;;;;;;;6.22;2.00;;;;;;;10.86;43.85;101112.78;4996006;28;20047;-77
2021/03/17 10:44:16;;;;;;;5.85;1.92;;;;;;;14.01;38.04;101106.84;4997316;28;20061;-77
2021/03/17 10:47:07;;;;;;;4.90;1.52;;;;;;;14.77;35.29;101103.81;4998267;28;20054;-77
2021/03/17 10:49:37;;;;;;;3.42;1.45;;;;;;;14.06;36.66;101111.47;4999219;28;20062;-79
2021/03/17 10:52:04;;;;;;;6.57;2.30;;;;;;;13.60;38.96;101105.13;4999146;28;20062;-77
2021/03/17 10:54:34;;;;;;;3.70;1.60;;;;;;;13.92;37.10;101112.41;4996909;28;20408;-77
2021/03/17 10:57:02;;;;;;;3.70;1.60;;;;;;;13.66;37.93;101105.81;4997110;28;20077;-77
2021/03/17 10:59:31;;;;;;;9.90;2.53;;;;;;;13.43;37.21;101113.41;4999411;28;20062;-78
2021/03/17 11:02:19;;;;;;;4.40;1.70;;;;;;;13.33;37.67;101108.88;4999364;28;20065;-77
2021/03/17 11:05:19;;;;;;;6.38;2.35;;;;;;;13.65;37.22;101110.59;4997874;28;20062;-77
2021/03/17 11:07:50;;;;;;;6.03;2.33;;;;;;;13.69;36.21;101110.78;5000180;28;20054;-80
2021/03/17 11:10:55;;;;;;;8.13;2.65;;;;;;;13.30;37.09;101104.75;5003091;28;20061;-79
2021/03/17 11:13:30;;;;;;;5.55;2.47;;;;;;;13.06;37.84;101106.97;5001091;28;20058;-79
2021/03/17 11:16:00;;;;;;;4.57;1.60;;;;;;;12.83;37.49;101109.75;5007541;28;20046;-80
2021/03/17 11:18:29;;;;;;;5.18;2.08;;;;;;;12.51;38.08;101105.94;5008462;28;20476;-79
2021/03/17 11:20:58;;;;;;;6.35;1.90;;;;;;;12.23;39.40;101109.91;5009426;28;20066;-79
2021/03/17 11:23:27;;;;;;;5.13;1.85;;;;;;;11.91;39.07;101118.06;5007135;28;20054;-79
2021/03/17 11:25:57;;;;;;;6.10;2.50;;;;;;;11.74;39.68;101110.22;5003384;28;20142;-79
2021/03/17 11:28:25;;;;;;;4.65;2.20;;;;;;;11.49;39.85;101113.47;5007138;28;20073;-79
2021/03/17 11:30:55;;;;;;;5.47;2.22;;;;;;;11.45;39.71;101110.47;5006409;28;20062;-79
2021/03/17 11:33:22;;;;;;;5.07;2.42;;;;;;;11.34;41.10;101117.34;5008093;28;20058;-78
2021/03/17 11:35:51;;;;;;;5.20;2.10;;;;;;;11.33;39.85;101113.72;5008222;28;20054;-78
2021/03/17 11:38:19;;;;;;;5.20;1.67;;;;;;;11.24;40.59;101117.50;5000658;28;20062;-78
2021/03/17 11:40:47;;;;;;;4.90;1.73;;;;;;;11.12;39.70;101115.16;4997425;28;20054;-77
2021/03/17 11:43:18;;;;;;;4.32;1.30;;;;;;;10.98;40.47;101109.50;4996352;28;20508;-77
2021/03/17 11:45:46;;;;;;;4.70;1.67;;;;;;;10.85;40.53;101110.28;4980246;28;20073;-77
2021/03/17 11:48:14;;;;;;;4.15;1.73;;;;;;;10.87;40.65;101106.03;4976165;28;20062;-77
2021/03/17 11:50:43;;;;;;;4.90;1.77;;;;;;;10.87;40.31;101106.03;4977311;28;20054;-76